Time;durP1;ratioP1;P1;durP2;ratioP2;P2;SDS_P1;SDS_P2;PMS_P1;PMS_P2;Temp;Humidity;BMP_temperature;BMP_pressure;BME280_temperature;BME280_humidity;BME280_pressure;Samples;Min_cycle;Max_cycle;Signal;HPM_P1;HPM_P2
2023/12/07 00:01:10;;;;;;;0.80;0.63;;;;;;;-143.84;100.00;45150.00;5088712;28;20447;-63
2023/12/07 00:03:37;;;;;;;0.80;0.63;;;;;;;-143.84;100.00;45142.38;5088865;28;20439;-63
2023/12/07 00:06:05;;;;;;;0.93;0.70;;;;;;;-143.84;100.00;45148.09;5088859;28;20904;-63
2023/12/07 00:08:33;;;;;;;0.80;0.50;;;;;;;-143.84;100.00;45148.09;5088692;28;20496;-63
2023/12/07 00:11:00;;;;;;;0.80;0.40;;;;;;;-143.84;100.00;45129.03;5088786;28;20448;-63
2023/12/07 00:13:28;;;;;;;0.90;0.50;;;;;;;-143.84;100.00;45195.69;5088803;28;20452;-63
2023/12/07 00:15:55;;;;;;;0.80;0.40;;;;;;;-143.84;100.00;45151.91;5088610;28;20494;-63
2023/12/07 00:18:22;;;;;;;0.80;0.40;;;;;;;-143.84;100.00;45170.94;5088678;28;20793;-63
2023/12/07 00:20:49;;;;;;;0.80;0.60;;;;;;;-143.84;100.00;45163.31;5088417;28;20443;-63
2023/12/07 00:23:16;;;;;;;0.80;0.40;;;;;;;-143.84;100.00;45167.13;5088457;28;20440;-63
2023/12/07 00:25:46;;;;;;;0.90;0.80;;;;;;;-143.84;100.00;45172.84;5088582;28;20905;-63
2023/12/07 00:28:14;;;;;;;1.23;0.93;;;;;;;-143.84;100.00;45144.28;5088569;28;20965;-63
2023/12/07 00:30:42;;;;;;;0.80;0.50;;;;;;;-143.84;100.00;45165.22;5088589;28;20443;-63
2023/12/07 00:33:09;;;;;;;0.80;0.40;;;;;;;-143.84;100.00;45170.94;5089034;28;20501;-63
2023/12/07 00:35:36;;;;;;;0.80;0.50;;;;;;;-143.84;100.00;45138.56;5088550;28;20520;-63
2023/12/07 00:38:05;;;;;;;0.73;0.40;;;;;;;-143.84;100.00;45136.66;5088544;28;20440;-63
2023/12/07 00:40:36;;;;;;;0.80;0.40;;;;;;;-143.84;100.00;45150.00;5088342;28;20857;-63
2023/12/07 00:43:05;;;;;;;0.80;0.40;;;;;;;-143.84;100.00;45197.59;5088459;28;20930;-63
2023/12/07 00:45:32;;;;;;;0.80;0.40;;;;;;;-143.84;100.00;45157.59;5091536;28;20475;-63
2023/12/07 00:47:59;;;;;;;1.30;0.70;;;;;;;-143.84;100.00;45172.84;5092466;28;20866;-63
2023/12/07 00:50:26;;;;;;;0.80;0.60;;;;;;;-143.84;100.00;45195.69;5092377;28;20439;-63
2023/12/07 00:52:53;;;;;;;0.80;0.40;;;;;;;-143.84;100.00;45167.13;5092412;28;20443;-63
2023/12/07 00:55:20;;;;;;;0.80;0.40;;;;;;;-143.84;100.00;45159.50;5092282;28;20452;-63
2023/12/07 00:57:47;;;;;;;0.80;0.40;;;;;;;-143.84;100.00;45178.56;5092139;28;20468;-63
2023/12/07 01:00:17;;;;;;;0.80;0.40;;;;;;;-143.84;100.00;45170.94;5092619;28;20432;-64
2023/12/07 01:02:44;;;;;;;0.80;0.40;;;;;;;-143.84;100.00;45146.19;5092646;28;20439;-63
2023/12/07 01:05:11;;;;;;;0.80;0.40;;;;;;;-143.84;100.00;45172.84;5091995;28;20505;-63
2023/12/07 01:07:38;;;;;;;1.00;0.60;;;;;;;-143.84;100.00;45180.47;5092166;28;20562;-63
2023/12/07 01:10:06;;;;;;;0.80;0.40;;;;;;;-143.84;100.00;45170.94;5092081;28;20477;-63
2023/12/07 01:12:35;;;;;;;0.80;0.40;;;;;;;-143.84;100.00;45174.75;5091719;28;20436;-63
2023/12/07 01:15:02;;;;;;;0.73;0.40;;;;;;;-143.84;100.00;45212.84;5091929;28;20519;-63
2023/12/07 01:17:31;;;;;;;0.80;0.50;;;;;;;-143.84;100.00;45201.41;5091908;28;20467;-63
2023/12/07 01:19:58;;;;;;;0.80;0.40;;;;;;;-143.84;100.00;45191.88;5092069;28;20443;-63
2023/12/07 01:22:25;;;;;;;1.13;1.03;;;;;;;-143.84;100.00;45169.03;5091685;28;20432;-63
2023/12/07 01:24:52;;;;;;;0.80;0.40;;;;;;;-143.84;100.00;45189.97;5091735;28;20473;-63
2023/12/07 01:27:19;;;;;;;0.80;0.40;;;;;;;-143.84;100.00;45209.03;5091883;28;20532;-63
2023/12/07 01:29:46;;;;;;;0.80;0.47;;;;;;;-143.84;100.00;45195.69;5091888;28;20528;-63
2023/12/07 01:32:14;;;;;;;0.80;0.40;;;;;;;-143.84;100.00;45170.94;5091669;28;20435;-63
2023/12/07 01:34:42;;;;;;;0.80;0.40;;;;;;;-143.84;99.94;45184.25;5091727;28;20539;-63
2023/12/07 01:37:10;;;;;;;0.80;0.40;;;;;;;-143.84;99.98;45193.78;5091562;28;20436;-63
2023/12/07 01:39:37;;;;;;;0.80;0.40;;;;;;;-143.84;100.00;45188.06;5091545;28;20447;-63
2023/12/07 01:42:04;;;;;;;0.80;0.40;;;;;;;-143.84;100.00;45159.50;5091360;28;20440;-64
2023/12/07 01:44:31;;;;;;;0.80;0.40;;;;;;;-143.84;100.00;45153.81;5091559;28;20439;-63
2023/12/07 01:46:58;;;;;;;0.80;0.40;;;;;;;-143.84;100.00;45176.66;5091330;28;20479;-63
2023/12/07 01:49:26;;;;;;;0.80;0.40;;;;;;;-143.84;100.00;45193.78;5091687;28;20436;-63
2023/12/07 01:51:54;;;;;;;0.80;0.40;;;;;;;-143.84;99.74;45212.84;5091497;28;20447;-63
2023/12/07 01:54:22;;;;;;;0.80;0.40;;;;;;;-143.84;99.51;45184.25;5091652;28;20436;-63
2023/12/07 01:56:49;;;;;;;0.80;0.40;;;;;;;-143.84;99.46;45193.78;5090596;28;20444;-63
2023/12/07 01:59:17;;;;;;;0.90;0.70;;;;;;;-143.84;99.37;45188.06;5091359;28;20432;-63
2023/12/07 02:01:44;;;;;;;0.80;0.40;;;;;;;-143.84;99.34;45205.22;5091126;28;20933;-63
2023/12/07 02:04:11;;;;;;;0.80;0.40;;;;;;;-143.84;99.40;45186.16;5090984;28;20945;-63
2023/12/07 02:06:39;;;;;;;0.80;0.40;;;;;;;-143.84;99.33;45178.56;5091294;28;20572;-63
2023/12/07 02:09:08;;;;;;;0.80;0.50;;;;;;;-143.84;99.45;45203.31;5091115;28;20930;-63
2023/12/07 02:11:36;;;;;;;0.80;0.40;;;;;;;-143.84;99.06;45174.75;5091093;28;20535;-63
2023/12/07 02:14:03;;;;;;;0.80;0.40;;;;;;;-143.84;98.83;45167.13;5090632;28;20444;-63
2023/12/07 02:16:35;;;;;;;0.80;0.40;;;;;;;-143.84;98.98;45195.69;5090872;28;20496;-64
2023/12/07 02:19:19;;;;;;;0.80;0.40;;;;;;;-143.84;98.86;45205.22;5090475;28;20444;-63
2023/12/07 02:21:53;;;;;;;0.80;0.40;;;;;;;-143.84;99.21;45209.03;5090091;28;20444;-63
2023/12/07 02:24:23;;;;;;;0.80;0.40;;;;;;;-143.84;99.30;45193.78;5090097;28;20961;-63
2023/12/07 02:26:54;;;;;;;0.80;0.40;;;;;;;-143.84;99.66;45193.78;5089712;28;20476;-63
2023/12/07 02:29:22;;;;;;;0.80;0.40;;;;;;;-143.84;99.55;45167.13;5090222;28;20791;-63
2023/12/07 02:31:49;;;;;;;0.80;0.40;;;;;;;-143.84;99.96;45176.66;5089888;28;20444;-63
2023/12/07 02:34:16;;;;;;;0.77;0.40;;;;;;;-143.84;99.86;45186.16;5089803;28;20493;-63
2023/12/07 02:36:46;;;;;;;0.80;0.40;;;;;;;-143.84;99.88;45155.69;5090295;28;20937;-63
2023/12/07 02:39:13;;;;;;;1.07;0.60;;;;;;;-143.84;99.86;45178.56;5090212;28;20446;-63
2023/12/07 02:41:42;;;;;;;0.80;0.40;;;;;;;-143.84;99.73;45199.50;5090533;28;20444;-63
2023/12/07 02:44:11;;;;;;;0.80;0.40;;;;;;;-143.84;99.81;45184.25;5090341;28;20815;-63
2023/12/07 02:46:39;;;;;;;1.57;0.80;;;;;;;-143.84;100.00;45180.47;5090102;28;20479;-63
2023/12/07 02:49:06;;;;;;;0.80;0.40;;;;;;;-143.84;99.86;45209.03;5090142;28;20467;-63
2023/12/07 02:51:33;;;;;;;0.80;0.40;;;;;;;-143.84;99.72;45170.94;5090209;28;20436;-62
2023/12/07 02:54:00;;;;;;;0.80;0.40;;;;;;;-143.84;99.83;45184.25;5089936;28;21003;-63
2023/12/07 02:56:27;;;;;;;0.80;0.40;;;;;;;-143.84;99.91;45169.03;5090084;28;20428;-62
2023/12/07 02:58:55;;;;;;;0.80;0.40;;;;;;;-143.84;100.00;45199.50;5089905;28;20440;-63
2023/12/07 03:01:23;;;;;;;0.80;0.40;;;;;;;-143.84;100.00;45195.69;5090229;28;20443;-63
2023/12/07 03:03:50;;;;;;;0.80;0.40;;;;;;;-143.84;100.00;45201.41;5089772;28;20501;-63
2023/12/07 03:06:19;;;;;;;0.80;0.40;;;;;;;-143.84;100.00;45207.13;5089743;28;20480;-63
2023/12/07 03:08:46;;;;;;;0.80;0.40;;;;;;;-143.84;100.00;45186.16;5088687;28;20439;-63
2023/12/07 03:11:13;;;;;;;0.80;0.40;;;;;;;-143.84;100.00;45203.31;5089573;28;20801;-63
2023/12/07 03:13:40;;;;;;;1.33;1.03;;;;;;;-143.84;100.00;45197.59;5089803;28;20668;-63
2023/12/07 03:16:09;;;;;;;0.80;0.40;;;;;;;-143.84;100.00;45193.78;5089639;28;20467;-63
2023/12/07 03:18:38;;;;;;;0.80;0.40;;;;;;;-143.84;100.00;45199.50;5089770;28;20550;-63
2023/12/07 03:21:06;;;;;;;0.80;0.50;;;;;;;-143.84;100.00;45189.97;5089512;28;20793;-63
2023/12/07 03:23:33;;;;;;;0.80;0.40;;;;;;;-143.84;100.00;45201.41;5089399;28;20527;-63
2023/12/07 03:26:00;;;;;;;0.80;0.40;;;;;;;-143.84;100.00;45188.06;5089657;28;20443;-63
2023/12/07 03:28:27;;;;;;;0.80;0.40;;;;;;;-143.84;100.00;45184.25;5089535;28;20440;-63
2023/12/07 03:30:54;;;;;;;0.80;0.40;;;;;;;-143.84;100.00;45197.59;5089674;28;20861;-63
2023/12/07 03:33:21;;;;;;;0.80;0.40;;;;;;;-143.84;100.00;45172.84;5089389;28;20489;-63
2023/12/07 03:35:50;;;;;;;0.80;0.40;;;;;;;-143.84;100.00;45197.59;5089310;28;20938;-63
2023/12/07 03:38:17;;;;;;;0.80;0.40;;;;;;;-143.84;100.00;45186.16;5089324;28;20443;-63
2023/12/07 03:40:47;;;;;;;0.80;0.50;;;;;;;-143.84;100.00;45157.59;5089408;28;21300;-63
2023/12/07 03:43:14;;;;;;;0.80;0.40;;;;;;;-143.84;100.00;45205.22;5089303;28;20513;-63
2023/12/07 03:45:42;;;;;;;0.80;0.50;;;;;;;-143.84;100.00;45178.56;5089073;28;20446;-63
2023/12/07 03:48:09;;;;;;;0.80;0.50;;;;;;;-143.84;100.00;45207.13;5089477;28;20475;-63
2023/12/07 03:50:36;;;;;;;0.80;0.40;;;;;;;-143.84;100.00;45197.59;5089179;28;20440;-63
2023/12/07 03:53:04;;;;;;;0.80;0.40;;;;;;;-143.84;100.00;45170.94;5088894;28;20444;-63
2023/12/07 03:55:31;;;;;;;0.80;0.40;;;;;;;-143.84;100.00;45169.03;5088885;28;20452;-63
2023/12/07 03:57:59;;;;;;;0.80;0.40;;;;;;;-143.84;100.00;45163.31;5088765;28;20436;-63
2023/12/07 04:00:26;;;;;;;0.80;0.40;;;;;;;-143.84;100.00;45203.31;5088827;28;20443;-63
2023/12/07 04:02:53;;;;;;;0.80;0.40;;;;;;;-143.84;100.00;45174.75;5089021;28;20443;-63
2023/12/07 04:05:20;;;;;;;0.80;0.40;;;;;;;-143.84;100.00;45159.50;5089267;28;20463;-63
2023/12/07 04:07:47;;;;;;;0.80;0.40;;;;;;;-143.84;100.00;45178.56;5088611;28;20475;-63
2023/12/07 04:10:16;;;;;;;0.80;0.40;;;;;;;-143.84;100.00;45155.69;5088859;28;20439;-63
2023/12/07 04:12:43;;;;;;;0.80;0.40;;;;;;;-143.84;100.00;45197.59;5088691;28;20440;-63
2023/12/07 04:15:11;;;;;;;0.80;0.40;;;;;;;-143.84;100.00;45170.94;5088811;28;20969;-63
2023/12/07 04:17:38;;;;;;;0.80;0.40;;;;;;;-143.84;100.00;45203.31;5088432;28;20483;-63
2023/12/07 04:20:07;;;;;;;0.80;0.40;;;;;;;-143.84;100.00;45195.69;5088590;28;20447;-63
2023/12/07 04:22:34;;;;;;;0.80;0.40;;;;;;;-143.84;100.00;45189.97;5088893;28;20498;-63
2023/12/07 04:25:01;;;;;;;0.80;0.40;;;;;;;-143.84;100.00;45193.78;5088509;28;20552;-63
2023/12/07 04:27:30;;;;;;;0.80;0.60;;;;;;;-143.84;99.91;45184.25;5088532;28;20479;-63
2023/12/07 04:29:57;;;;;;;0.80;0.40;;;;;;;-143.84;99.95;45214.72;5088393;28;20435;-63
2023/12/07 04:32:25;;;;;;;0.80;0.40;;;;;;;-143.84;99.77;45207.13;5088337;28;20463;-63
2023/12/07 04:34:52;;;;;;;0.80;0.40;;;;;;;-143.84;99.86;45229.97;5088248;28;21076;-62
2023/12/07 04:37:19;;;;;;;0.80;0.40;;;;;;;-143.84;99.87;45195.69;5088471;28;20432;-62
2023/12/07 04:39:46;;;;;;;0.80;0.40;;;;;;;-143.84;99.80;45209.03;5088691;28;20470;-62
2023/12/07 04:42:14;;;;;;;0.80;0.40;;;;;;;-143.84;99.80;45237.59;5088475;28;20561;-62
2023/12/07 04:44:42;;;;;;;0.80;0.40;;;;;;;-143.84;100.00;45207.13;5088328;28;20436;-62
2023/12/07 04:47:09;;;;;;;0.90;0.70;;;;;;;-143.84;100.00;45201.41;5088326;28;20491;-62
2023/12/07 04:49:37;;;;;;;0.80;0.40;;;;;;;-143.84;100.00;45212.84;5088276;28;20493;-62
2023/12/07 04:52:04;;;;;;;0.80;0.40;;;;;;;-143.84;100.00;45216.63;5088419;28;20443;-62
2023/12/07 04:54:31;;;;;;;0.80;0.40;;;;;;;-143.84;100.00;45201.41;5088463;28;20439;-62
2023/12/07 04:56:58;;;;;;;0.80;0.50;;;;;;;-143.84;100.00;45210.94;5088393;28;20513;-62
2023/12/07 04:59:25;;;;;;;0.80;0.40;;;;;;;-143.84;100.00;45216.63;5088274;28;20444;-62
2023/12/07 05:01:54;;;;;;;0.80;0.50;;;;;;;-143.84;100.00;45226.16;5088198;28;20444;-62
2023/12/07 05:04:21;;;;;;;0.80;0.40;;;;;;;-143.84;100.00;45216.63;5088028;28;20969;-62
2023/12/07 05:06:49;;;;;;;0.80;0.40;;;;;;;-143.84;100.00;45207.13;5088125;28;20490;-62
2023/12/07 05:09:16;;;;;;;0.80;0.60;;;;;;;-143.84;100.00;45191.88;5088170;28;20536;-62
2023/12/07 05:11:45;;;;;;;0.80;0.40;;;;;;;-143.84;100.00;45212.84;5088516;28;20542;-62
2023/12/07 05:14:12;;;;;;;0.80;0.40;;;;;;;-143.84;100.00;45212.84;5088602;28;20557;-62
2023/12/07 05:16:39;;;;;;;0.80;0.50;;;;;;;-143.84;100.00;45212.84;5088293;28;20487;-62
2023/12/07 05:19:08;;;;;;;0.80;0.40;;;;;;;-143.84;100.00;45184.25;5088192;28;20958;-62
2023/12/07 05:21:35;;;;;;;0.80;0.40;;;;;;;-143.84;100.00;45176.66;5088207;28;20440;-62
2023/12/07 05:24:02;;;;;;;0.80;0.47;;;;;;;-143.84;100.00;45218.53;5088145;28;20479;-62
2023/12/07 05:26:32;;;;;;;0.80;0.40;;;;;;;-143.84;100.00;45231.88;5088110;28;20444;-62
2023/12/07 05:29:00;;;;;;;0.80;0.40;;;;;;;-143.84;100.00;45195.69;5088302;28;20820;-62
2023/12/07 05:31:27;;;;;;;0.80;0.50;;;;;;;-143.84;100.00;45216.63;5089079;28;20523;-62
2023/12/07 05:33:54;;;;;;;0.80;0.50;;;;;;;-143.84;100.00;45212.84;5091559;28;20472;-62
2023/12/07 05:36:22;;;;;;;0.80;0.40;;;;;;;-143.84;100.00;45222.34;5091675;28;20454;-61
2023/12/07 05:38:50;;;;;;;0.80;0.40;;;;;;;-143.84;100.00;45201.41;5091420;28;20982;-61
2023/12/07 05:41:17;;;;;;;1.07;0.60;;;;;;;-143.84;100.00;45231.88;5091463;28;20446;-62
2023/12/07 05:43:44;;;;;;;0.80;0.47;;;;;;;-143.84;100.00;45191.88;5091791;28;20443;-62
2023/12/07 05:46:11;;;;;;;1.00;0.87;;;;;;;-143.84;100.00;45216.63;5091612;28;20443;-62
2023/12/07 05:48:38;;;;;;;0.80;0.50;;;;;;;-143.84;100.00;45229.97;5091310;28;21010;-62
2023/12/07 05:51:06;;;;;;;0.80;0.40;;;;;;;-143.84;100.00;45197.59;5091283;28;21044;-62
2023/12/07 05:53:34;;;;;;;0.80;0.50;;;;;;;-143.84;100.00;45193.78;5091247;28;20446;-62
2023/12/07 05:56:02;;;;;;;1.17;0.70;;;;;;;-143.84;100.00;45203.31;5091120;28;20440;-62
2023/12/07 05:58:29;;;;;;;0.80;0.40;;;;;;;-143.84;100.00;45186.16;5091135;28;20523;-62
2023/12/07 06:00:56;;;;;;;0.80;0.40;;;;;;;-143.84;100.00;45180.47;5091192;28;20530;-62
2023/12/07 06:03:25;;;;;;;0.80;0.40;;;;;;;-143.84;100.00;45222.34;5091237;28;20507;-63
2023/12/07 06:05:53;;;;;;;0.80;0.50;;;;;;;-143.84;100.00;45209.03;5090955;28;20929;-62
2023/12/07 06:08:20;;;;;;;0.80;0.40;;;;;;;-143.84;100.00;45222.34;5090949;28;20953;-62
2023/12/07 06:10:48;;;;;;;0.90;0.77;;;;;;;-143.84;100.00;45212.84;5091270;28;20436;-62
2023/12/07 06:13:16;;;;;;;1.90;0.73;;;;;;;-143.84;100.00;45222.34;5090907;28;20448;-62
2023/12/07 06:15:43;;;;;;;0.80;0.40;;;;;;;-143.84;100.00;45209.03;5090889;28;20489;-63
2023/12/07 06:18:10;;;;;;;1.17;0.77;;;;;;;-143.84;100.00;45199.50;5090867;28;20436;-62
2023/12/07 06:20:37;;;;;;;0.80;0.40;;;;;;;-143.84;100.00;45191.88;5090732;28;20439;-62
2023/12/07 06:23:04;;;;;;;0.80;0.40;;;;;;;-143.84;100.00;45220.44;5090595;28;20466;-63
2023/12/07 06:25:31;;;;;;;0.80;0.40;;;;;;;-143.84;100.00;45239.50;5090454;28;20809;-63
2023/12/07 06:28:00;;;;;;;0.80;0.40;;;;;;;-143.84;100.00;45220.44;5090475;28;20529;-63
2023/12/07 06:30:27;;;;;;;0.80;0.40;;;;;;;-143.84;100.00;45199.50;5090574;28;20549;-63
2023/12/07 06:32:54;;;;;;;0.80;0.40;;;;;;;-143.84;100.00;45228.06;5090353;28;20953;-63
2023/12/07 06:35:21;;;;;;;0.80;0.40;;;;;;;-143.84;100.00;45191.88;5090462;28;20447;-63
2023/12/07 06:37:49;;;;;;;1.27;0.90;;;;;;;-143.84;100.00;45189.97;5090350;28;20451;-63
2023/12/07 06:40:16;;;;;;;0.80;0.60;;;;;;;-143.84;100.00;45191.88;5090670;28;20446;-63
2023/12/07 06:42:43;;;;;;;0.90;0.80;;;;;;;-143.84;100.00;45224.25;5090219;28;20431;-62
2023/12/07 06:45:14;;;;;;;0.80;0.40;;;;;;;-143.84;100.00;45193.78;5090107;28;20596;-63
2023/12/07 06:47:42;;;;;;;0.80;0.40;;;;;;;-143.84;100.00;45233.78;5090172;28;20612;-62
2023/12/07 06:50:10;;;;;;;1.00;0.80;;;;;;;-143.84;100.00;45191.88;5090317;28;20477;-62
2023/12/07 06:52:38;;;;;;;0.80;0.50;;;;;;;-143.84;100.00;45197.59;5090602;28;20518;-59
2023/12/07 06:55:06;;;;;;;0.80;0.40;;;;;;;-143.84;100.00;45209.03;5090511;28;20807;-59
2023/12/07 06:57:33;;;;;;;0.80;0.50;;;;;;;-143.84;100.00;45237.59;5090586;28;20847;-59
2023/12/07 07:00:01;;;;;;;0.80;0.40;;;;;;;-143.84;100.00;45193.78;5089976;28;20978;-59
2023/12/07 07:02:29;;;;;;;0.80;0.40;;;;;;;-143.84;100.00;45205.22;5089795;28;21138;-59
2023/12/07 07:04:57;;;;;;;0.80;0.50;;;;;;;-143.84;100.00;45197.59;5088963;28;20454;-59
2023/12/07 07:07:24;;;;;;;0.80;0.40;;;;;;;-143.84;100.00;45186.16;5090006;28;20478;-60
2023/12/07 07:09:51;;;;;;;0.80;0.40;;;;;;;-143.84;100.00;45203.31;5089353;28;20514;-59
2023/12/07 07:12:18;;;;;;;0.80;0.40;;;;;;;-143.84;100.00;45210.94;5089329;28;20435;-59
2023/12/07 07:14:45;;;;;;;0.80;0.40;;;;;;;-143.84;100.00;45205.22;5089619;28;20439;-59
2023/12/07 07:17:12;;;;;;;0.80;0.40;;;;;;;-143.84;100.00;45199.50;5089788;28;20532;-59
2023/12/07 07:19:41;;;;;;;0.80;0.50;;;;;;;-143.84;100.00;45216.63;5090293;28;20424;-59
2023/12/07 07:22:09;;;;;;;0.90;0.80;;;;;;;-143.84;100.00;45197.59;5090319;28;20487;-59
2023/12/07 07:24:36;;;;;;;0.80;0.40;;;;;;;-143.84;100.00;45193.78;5090104;28;20529;-59
2023/12/07 07:27:04;;;;;;;0.80;0.60;;;;;;;-143.84;100.00;45203.31;5089793;28;20443;-59
2023/12/07 07:29:32;;;;;;;0.90;0.80;;;;;;;-143.84;100.00;45203.31;5089721;28;20952;-59
2023/12/07 07:31:59;;;;;;;0.80;0.40;;;;;;;-143.84;100.00;45184.25;5089893;28;20454;-60
2023/12/07 07:34:26;;;;;;;0.80;0.50;;;;;;;-143.84;100.00;45195.69;5089779;28;20509;-59
2023/12/07 07:36:55;;;;;;;0.80;0.50;;;;;;;-143.84;100.00;45216.63;5089426;28;20435;-59
2023/12/07 07:39:22;;;;;;;0.80;0.40;;;;;;;-143.84;100.00;45222.34;5089868;28;20911;-59
2023/12/07 07:41:49;;;;;;;0.80;0.50;;;;;;;-143.84;100.00;45226.16;5089725;28;20443;-59
2023/12/07 07:44:16;;;;;;;0.80;0.40;;;;;;;-143.84;100.00;45201.41;5089452;28;20442;-59
2023/12/07 07:46:44;;;;;;;0.80;0.53;;;;;;;-143.84;100.00;45199.50;5089361;28;20728;-59
2023/12/07 07:49:11;;;;;;;0.80;0.50;;;;;;;-143.84;100.00;45226.16;5089627;28;20482;-58
2023/12/07 07:51:38;;;;;;;0.80;0.50;;;;;;;-143.84;100.00;45220.44;5089573;28;20857;-59
2023/12/07 07:54:07;;;;;;;1.10;0.90;;;;;;;-143.84;100.00;45195.69;5088772;28;20430;-59
2023/12/07 07:56:34;;;;;;;0.80;0.40;;;;;;;-143.84;100.00;45174.75;5089389;28;20443;-58
2023/12/07 07:59:02;;;;;;;0.80;0.50;;;;;;;-143.84;100.00;45216.63;5089436;28;20454;-59
2023/12/07 08:01:29;;;;;;;0.80;0.40;;;;;;;-143.84;100.00;45218.53;5089473;28;20447;-58
2023/12/07 08:03:56;;;;;;;0.80;0.40;;;;;;;-143.84;100.00;45210.94;5089511;28;20443;-59
2023/12/07 08:06:24;;;;;;;0.90;0.50;;;;;;;-143.84;100.00;45203.31;5089246;28;20448;-59
2023/12/07 08:08:51;;;;;;;0.80;0.40;;;;;;;-143.84;100.00;45201.41;5089259;28;21232;-58
2023/12/07 08:11:19;;;;;;;0.80;0.40;;;;;;;-143.84;100.00;45235.69;5089520;28;20449;-58
2023/12/07 08:13:47;;;;;;;0.80;0.50;;;;;;;-143.84;100.00;45180.47;5089266;28;20529;-58
2023/12/07 08:16:14;;;;;;;0.80;0.40;;;;;;;-143.84;100.00;45199.50;5088893;28;20485;-59
2023/12/07 08:18:41;;;;;;;0.80;0.40;;;;;;;-143.84;100.00;45193.78;5089218;28;20439;-58
2023/12/07 08:21:08;;;;;;;0.80;0.40;;;;;;;-143.84;100.00;45228.06;5088821;28;20542;-58
2023/12/07 08:23:36;;;;;;;1.73;1.30;;;;;;;-143.84;100.00;45222.34;5089135;28;20462;-59
2023/12/07 08:26:03;;;;;;;0.80;0.50;;;;;;;-143.84;100.00;45199.50;5089103;28;20498;-59
2023/12/07 08:28:32;;;;;;;0.80;0.60;;;;;;;-143.84;100.00;45203.31;5088605;28;20482;-59
2023/12/07 08:30:59;;;;;;;0.80;0.40;;;;;;;-143.84;100.00;45201.41;5088743;28;20451;-60
2023/12/07 08:33:26;;;;;;;0.80;0.50;;;;;;;-143.84;100.00;45193.78;5088838;28;20448;-59
2023/12/07 08:35:55;;;;;;;0.80;0.50;;;;;;;-143.84;100.00;45180.47;5088759;28;20447;-59
2023/12/07 08:38:23;;;;;;;0.80;0.50;;;;;;;-143.84;100.00;45186.16;5088744;28;21013;-59
2023/12/07 08:40:50;;;;;;;0.80;0.40;;;;;;;-143.84;100.00;45182.38;5088970;28;20897;-59
2023/12/07 08:43:17;;;;;;;0.80;0.40;;;;;;;-143.84;100.00;45191.88;5088942;28;20432;-59
2023/12/07 08:45:46;;;;;;;0.80;0.50;;;;;;;-143.84;100.00;45197.59;5088792;28;20443;-58
2023/12/07 08:48:13;;;;;;;0.80;0.50;;;;;;;-143.84;100.00;45180.47;5088607;28;20585;-58
2023/12/07 08:50:40;;;;;;;0.80;0.50;;;;;;;-143.84;100.00;45165.22;5088681;28;20463;-58
2023/12/07 08:53:07;;;;;;;0.80;0.50;;;;;;;-143.84;100.00;45191.88;5088867;28;20436;-58
2023/12/07 08:55:35;;;;;;;0.80;0.40;;;;;;;-143.84;100.00;45174.75;5088482;28;20443;-58
2023/12/07 08:58:04;;;;;;;1.47;1.27;;;;;;;-143.84;100.00;45203.31;5088955;28;20523;-58
2023/12/07 09:00:32;;;;;;;1.00;0.77;;;;;;;-143.84;100.00;45189.97;5088810;28;20443;-59
2023/12/07 09:03:01;;;;;;;0.80;0.63;;;;;;;-143.84;100.00;45188.06;5088680;28;20512;-59
2023/12/07 09:05:29;;;;;;;0.80;0.40;;;;;;;-143.84;100.00;45210.94;5088508;28;20953;-59
2023/12/07 09:07:57;;;;;;;0.80;0.40;;;;;;;-143.84;100.00;45203.31;5092090;28;20475;-59
2023/12/07 09:10:24;;;;;;;0.80;0.40;;;;;;;-143.84;100.00;45195.69;5092602;28;21017;-60
2023/12/07 09:12:52;;;;;;;0.80;0.40;;;;;;;-143.84;100.00;45216.63;5092560;28;20874;-59
2023/12/07 09:15:19;;;;;;;1.00;0.60;;;;;;;-143.84;100.00;45205.22;5092194;28;20929;-58
2023/12/07 09:17:46;;;;;;;0.80;0.50;;;;;;;-143.84;100.00;45189.97;5092106;28;20483;-58
2023/12/07 09:20:14;;;;;;;0.80;0.40;;;;;;;-143.84;100.00;45193.78;5092396;28;20979;-59
2023/12/07 09:22:43;;;;;;;0.80;0.40;;;;;;;-143.84;100.00;45212.84;5092290;28;20443;-59
2023/12/07 09:25:11;;;;;;;0.80;0.50;;;;;;;-143.84;100.00;45212.84;5091942;28;20436;-59
2023/12/07 09:27:38;;;;;;;1.40;1.07;;;;;;;-143.84;100.00;45186.16;5092122;28;20783;-59
2023/12/07 09:30:10;;;;;;;0.80;0.50;;;;;;;-143.84;100.00;45203.31;5092223;28;20451;-59
2023/12/07 09:32:38;;;;;;;0.80;0.40;;;;;;;-143.84;100.00;45228.06;5092391;28;20439;-59
2023/12/07 09:35:06;;;;;;;0.80;0.40;;;;;;;-143.84;100.00;45193.78;5092345;28;20466;-59
2023/12/07 09:37:35;;;;;;;0.83;0.67;;;;;;;-143.84;100.00;45210.94;5092029;28;20453;-59
2023/12/07 09:40:05;;;;;;;0.80;0.50;;;;;;;-143.84;100.00;45222.34;5091721;28;20445;-59
2023/12/07 09:42:32;;;;;;;0.80;0.50;;;;;;;-143.84;100.00;45199.50;5092050;28;20478;-59
2023/12/07 09:45:01;;;;;;;0.80;0.50;;;;;;;-143.84;100.00;45193.78;5092142;28;20446;-59
2023/12/07 09:47:29;;;;;;;0.80;0.40;;;;;;;-143.84;100.00;45218.53;5091838;28;20736;-59
2023/12/07 09:50:00;;;;;;;0.80;0.60;;;;;;;-143.84;99.95;45233.78;5091706;28;20485;-59
2023/12/07 09:52:27;;;;;;;0.80;0.40;;;;;;;-143.84;100.00;45214.72;5092021;28;20509;-59
2023/12/07 09:54:58;;;;;;;0.80;0.40;;;;;;;-143.84;99.98;45224.25;5091663;28;20466;-59
2023/12/07 09:57:25;;;;;;;1.00;0.67;;;;;;;-143.84;99.91;45191.88;5091630;28;20447;-59
2023/12/07 09:59:52;;;;;;;0.80;0.40;;;;;;;-143.84;99.40;45209.03;5091659;28;20934;-60
2023/12/07 10:02:19;;;;;;;0.80;0.40;;;;;;;-143.84;99.17;45207.13;5091517;28;20448;-59
2023/12/07 10:04:47;;;;;;;0.80;0.40;;;;;;;-143.84;98.61;45229.97;5091519;28;20447;-59
2023/12/07 10:07:14;;;;;;;0.80;0.50;;;;;;;-143.84;97.86;45226.16;5091359;28;20447;-60
2023/12/07 10:09:42;;;;;;;0.80;0.60;;;;;;;-143.84;97.30;45218.53;5091172;28;20548;-59
2023/12/07 10:12:11;;;;;;;0.80;0.40;;;;;;;-143.84;97.12;45235.69;5091566;28;20451;-59
2023/12/07 10:14:39;;;;;;;0.80;0.50;;;;;;;-143.84;96.95;45220.44;5091321;28;20975;-59
2023/12/07 10:17:06;;;;;;;0.80;0.50;;;;;;;-143.84;96.76;45228.06;5090509;28;20498;-59
2023/12/07 10:19:33;;;;;;;0.80;0.50;;;;;;;-143.84;96.90;45220.44;5091210;28;20439;-59
2023/12/07 10:22:00;;;;;;;2.00;0.63;;;;;;;-143.84;96.43;45237.59;5091180;28;20444;-59
2023/12/07 10:24:30;;;;;;;0.80;0.40;;;;;;;-143.84;96.94;45239.50;5090709;28;20956;-59
2023/12/07 10:26:59;;;;;;;0.90;0.63;;;;;;;-143.84;96.53;45250.91;5091293;28;20447;-59
2023/12/07 10:29:29;;;;;;;0.80;0.40;;;;;;;-143.84;96.74;45247.09;5090813;28;20574;-59
2023/12/07 10:32:02;;;;;;;0.80;0.40;;;;;;;-143.84;96.72;45245.19;5090886;28;20446;-59
2023/12/07 10:34:30;;;;;;;0.80;0.47;;;;;;;-143.84;96.50;45231.88;5090827;28;20447;-59
2023/12/07 10:36:57;;;;;;;0.80;0.50;;;;;;;-143.84;95.90;45239.50;5091068;28;20436;-59
2023/12/07 10:39:26;;;;;;;0.80;0.40;;;;;;;-143.84;96.31;45235.69;5090966;28;20446;-59
2023/12/07 10:41:57;;;;;;;0.80;0.40;;;;;;;-143.84;96.01;45247.09;5090583;28;20459;-59
2023/12/07 10:44:29;;;;;;;0.90;0.77;;;;;;;-143.84;96.36;45222.34;5090658;28;20526;-60
2023/12/07 10:46:58;;;;;;;0.80;0.40;;;;;;;-143.84;95.83;45237.59;5090728;28;20432;-60
2023/12/07 10:49:28;;;;;;;0.80;0.50;;;;;;;-143.84;95.60;45235.69;5090505;28;20490;-59
2023/12/07 10:52:01;;;;;;;1.10;1.00;;;;;;;-143.84;96.09;45247.09;5090592;28;20450;-59
2023/12/07 10:54:34;;;;;;;0.80;0.40;;;;;;;-143.84;95.38;45231.88;5090450;28;20483;-59
2023/12/07 10:57:05;;;;;;;0.80;0.50;;;;;;;-143.84;95.71;45207.13;5090761;28;20440;-59
2023/12/07 10:59:36;;;;;;;1.17;0.80;;;;;;;-143.84;96.09;45245.19;5090339;28;20451;-58
2023/12/07 11:02:06;;;;;;;0.80;0.60;;;;;;;-143.84;95.35;45235.69;5090750;28;20484;-59
2023/12/07 11:04:33;;;;;;;0.80;0.50;;;;;;;-143.84;95.33;45252.81;5091039;28;20551;-59
2023/12/07 11:07:08;;;;;;;0.80;0.40;;;;;;;-143.84;95.92;45269.97;5090159;28;20492;-58
2023/12/07 11:09:42;;;;;;;0.90;0.70;;;;;;;-143.84;96.53;45235.69;5090425;28;21320;-59
2023/12/07 11:12:18;;;;;;;0.80;0.50;;;;;;;-143.84;96.29;45268.06;5090214;28;20442;-59
2023/12/07 11:14:47;;;;;;;0.80;0.40;;;;;;;-143.84;97.33;45266.16;5090379;28;20446;-59